createdAt,value
2018-08-09T00:00:56.182Z,994.41
2018-08-09T00:01:56.213Z,994.43
2018-08-09T00:02:56.254Z,994.43
2018-08-09T00:03:56.295Z,994.45
2018-08-09T00:04:56.336Z,994.46
2018-08-09T00:05:56.376Z,994.49
2018-08-09T00:06:56.419Z,994.51
2018-08-09T00:07:56.459Z,994.49
2018-08-09T00:08:56.501Z,994.47
2018-08-09T00:09:56.540Z,994.46
2018-08-09T00:10:56.585Z,994.46
2018-08-09T00:11:56.623Z,994.41
2018-08-09T00:12:56.663Z,994.37
2018-08-09T00:13:56.706Z,994.35
2018-08-09T00:14:56.745Z,994.40
2018-08-09T00:15:56.783Z,994.34
2018-08-09T00:16:56.825Z,994.36
2018-08-09T00:17:56.869Z,994.33
2018-08-09T00:18:56.911Z,994.34
2018-08-09T00:19:56.946Z,994.38
2018-08-09T00:20:56.988Z,994.37
2018-08-09T00:21:57.028Z,994.38
2018-08-09T00:22:57.068Z,994.38
2018-08-09T00:23:57.159Z,994.40
2018-08-09T00:24:57.151Z,994.38
2018-08-09T00:25:57.197Z,994.42
2018-08-09T00:26:57.231Z,994.43
2018-08-09T00:27:57.271Z,994.44
2018-08-09T00:28:57.314Z,994.45
2018-08-09T00:29:57.356Z,994.45
2018-08-09T00:30:57.393Z,994.47
2018-08-09T00:31:57.432Z,994.47
2018-08-09T00:32:57.481Z,994.46
2018-08-09T00:33:57.514Z,994.44
2018-08-09T00:34:57.555Z,994.44
2018-08-09T00:35:57.594Z,994.41
2018-08-09T00:36:57.686Z,994.39
2018-08-09T00:37:57.677Z,994.38
2018-08-09T00:38:57.717Z,994.36
2018-08-09T00:39:57.756Z,994.37
2018-08-09T00:40:57.805Z,994.35
2018-08-09T00:41:57.847Z,994.36
2018-08-09T00:42:57.878Z,994.35
2018-08-09T00:43:57.921Z,994.38
2018-08-09T00:44:57.960Z,994.33
2018-08-09T00:45:58.000Z,994.28
2018-08-09T00:46:58.040Z,994.27
2018-08-09T00:47:58.117Z,994.25
2018-08-09T00:48:58.139Z,994.27
2018-08-09T00:49:58.164Z,994.23
2018-08-09T00:50:58.205Z,994.23
2018-08-09T00:51:58.245Z,994.23
2018-08-09T00:52:58.284Z,994.16
2018-08-09T00:53:58.324Z,994.19
2018-08-09T00:54:58.363Z,994.22
2018-08-09T00:55:58.403Z,994.27
2018-08-09T00:56:58.446Z,994.29
2018-08-09T00:57:58.483Z,994.27
2018-08-09T00:58:58.525Z,994.28
2018-08-09T00:59:58.574Z,994.32
2018-08-09T01:00:58.607Z,994.30
2018-08-09T01:01:58.645Z,994.29
2018-08-09T01:02:58.687Z,994.30
2018-08-09T01:03:58.732Z,994.31
2018-08-09T01:04:58.768Z,994.28
2018-08-09T01:05:58.808Z,994.28
2018-08-09T01:06:58.866Z,994.26
2018-08-09T01:07:58.888Z,994.27
2018-08-09T01:08:58.930Z,994.27
2018-08-09T01:09:58.970Z,994.27
2018-08-09T01:10:59.011Z,994.23
2018-08-09T01:11:59.051Z,994.23
2018-08-09T01:12:59.091Z,994.18
2018-08-09T01:13:59.131Z,994.16
2018-08-09T01:14:59.176Z,994.15
2018-08-09T01:15:59.213Z,994.13
2018-08-09T01:16:59.251Z,994.13
2018-08-09T01:17:59.293Z,994.10
2018-08-09T01:18:59.337Z,994.07
2018-08-09T01:19:59.374Z,994.09
2018-08-09T01:20:59.423Z,994.15
2018-08-09T01:21:59.453Z,994.15
2018-08-09T01:22:59.494Z,994.14
2018-08-09T01:23:59.532Z,994.15
2018-08-09T01:24:59.575Z,994.13
2018-08-09T01:25:59.614Z,994.13
2018-08-09T01:26:59.702Z,994.09
2018-08-09T01:27:59.695Z,994.09
2018-08-09T01:28:59.733Z,994.06
2018-08-09T01:29:59.774Z,994.05
2018-08-09T01:30:59.814Z,994.08
2018-08-09T01:31:59.855Z,994.07
2018-08-09T01:32:59.934Z,994.06
2018-08-09T01:33:59.941Z,994.07
2018-08-09T01:34:59.975Z,994.06
2018-08-09T01:36:00.016Z,994.05
2018-08-09T01:37:00.056Z,994.07
2018-08-09T01:38:00.096Z,994.06
2018-08-09T01:39:00.182Z,994.05
2018-08-09T01:40:00.177Z,994.10
2018-08-09T01:41:00.218Z,994.05
2018-08-09T01:42:00.257Z,994.05
2018-08-09T01:43:00.297Z,994.06
2018-08-09T01:44:00.337Z,994.06
2018-08-09T01:45:00.379Z,994.07
2018-08-09T01:46:00.419Z,994.08
2018-08-09T01:47:00.460Z,994.06
2018-08-09T01:48:00.497Z,994.09
2018-08-09T01:49:00.540Z,994.09
2018-08-09T01:50:00.580Z,994.11
2018-08-09T01:51:00.622Z,994.11
2018-08-09T01:52:00.659Z,994.14
2018-08-09T01:53:00.700Z,994.11
2018-08-09T01:54:00.744Z,994.13
2018-08-09T01:55:00.780Z,994.11
2018-08-09T01:56:00.818Z,994.14
2018-08-09T01:57:00.878Z,994.10
2018-08-09T01:58:00.898Z,994.14
2018-08-09T01:59:00.939Z,994.15
2018-08-09T02:00:00.978Z,994.13
2018-08-09T02:01:01.045Z,994.15
2018-08-09T02:02:01.059Z,994.18
2018-08-09T02:03:01.101Z,994.17
2018-08-09T02:04:01.141Z,994.20
2018-08-09T02:05:01.226Z,994.20
2018-08-09T02:06:01.222Z,994.20
2018-08-09T02:07:01.260Z,994.23
2018-08-09T02:08:01.300Z,994.18
2018-08-09T02:09:01.341Z,994.21
2018-08-09T02:10:01.382Z,994.16
2018-08-09T02:11:01.422Z,994.14
2018-08-09T02:12:01.487Z,994.11
2018-08-09T02:13:01.501Z,994.07
2018-08-09T02:14:01.541Z,994.10
2018-08-09T02:15:01.589Z,994.09
2018-08-09T02:16:01.627Z,994.04
2018-08-09T02:17:01.663Z,994.05
2018-08-09T02:18:01.703Z,994.07
2018-08-09T02:19:01.744Z,994.05
2018-08-09T02:20:01.807Z,994.04
2018-08-09T02:21:01.823Z,994.04
2018-08-09T02:22:01.861Z,994.04
2018-08-09T02:23:01.902Z,994.02
2018-08-09T02:24:01.940Z,994.04
2018-08-09T02:25:01.979Z,994.08
2018-08-09T02:26:02.021Z,994.08
2018-08-09T02:27:02.060Z,994.04
2018-08-09T02:28:02.099Z,993.99
2018-08-09T02:29:02.140Z,993.99
2018-08-09T02:30:02.186Z,993.96
2018-08-09T02:31:02.222Z,993.94
2018-08-09T02:32:02.271Z,993.97
2018-08-09T02:33:02.301Z,993.99
2018-08-09T02:34:02.353Z,994.01
2018-08-09T02:35:02.379Z,993.99
2018-08-09T02:36:02.420Z,993.98
2018-08-09T02:37:02.458Z,993.98
2018-08-09T02:38:02.499Z,994.00
2018-08-09T02:39:02.540Z,993.98
2018-08-09T02:40:02.579Z,993.97
2018-08-09T02:41:02.620Z,993.97
2018-08-09T02:42:02.660Z,993.98
2018-08-09T02:43:02.700Z,993.94
2018-08-09T02:44:02.749Z,993.92
2018-08-09T02:45:02.784Z,993.89
2018-08-09T02:46:02.820Z,993.89
2018-08-09T02:47:02.860Z,993.88
2018-08-09T02:48:02.899Z,993.88
2018-08-09T02:49:02.940Z,993.85
2018-08-09T02:50:02.982Z,993.86
2018-08-09T02:51:03.019Z,993.85
2018-08-09T02:52:03.060Z,993.89
2018-08-09T02:53:03.097Z,993.92
2018-08-09T02:54:03.138Z,993.89
2018-08-09T02:55:03.180Z,993.89
2018-08-09T02:56:03.216Z,993.89
2018-08-09T02:57:03.272Z,993.85
2018-08-09T02:58:03.298Z,993.83
2018-08-09T02:59:03.338Z,993.84
2018-08-09T03:00:03.377Z,993.81
2018-08-09T03:01:03.421Z,993.85
2018-08-09T03:02:03.457Z,993.83
2018-08-09T03:03:03.495Z,993.80
2018-08-09T03:04:03.544Z,993.81
2018-08-09T03:05:03.579Z,993.80
2018-08-09T03:06:03.616Z,993.76
2018-08-09T03:07:03.656Z,993.79
2018-08-09T03:08:03.694Z,993.79
2018-08-09T03:09:03.742Z,993.74
2018-08-09T03:10:03.775Z,993.75
2018-08-09T03:11:03.822Z,993.75
2018-08-09T03:12:03.856Z,993.77
2018-08-09T03:13:03.896Z,993.77
2018-08-09T03:14:03.934Z,993.74
2018-08-09T03:15:03.976Z,993.70
2018-08-09T03:16:04.014Z,993.72
2018-08-09T03:17:04.103Z,993.69
2018-08-09T03:18:04.094Z,993.65
2018-08-09T03:19:04.136Z,993.65
2018-08-09T03:20:04.171Z,993.63
2018-08-09T03:21:04.220Z,993.65
2018-08-09T03:22:04.260Z,993.66
2018-08-09T03:23:04.292Z,993.62
2018-08-09T03:24:04.330Z,993.66
2018-08-09T03:25:04.378Z,993.61
2018-08-09T03:26:04.415Z,993.63
2018-08-09T03:27:04.452Z,993.59
2018-08-09T03:28:04.489Z,993.60
2018-08-09T03:29:04.529Z,993.57
2018-08-09T03:30:04.569Z,993.58
2018-08-09T03:31:04.608Z,993.60
2018-08-09T03:32:04.648Z,993.56
2018-08-09T03:33:04.696Z,993.57
2018-08-09T03:34:04.727Z,993.58
2018-08-09T03:35:04.768Z,993.58
2018-08-09T03:36:04.810Z,993.55
2018-08-09T03:37:04.876Z,993.59
2018-08-09T03:38:04.886Z,993.60
2018-08-09T03:39:04.925Z,993.57
2018-08-09T03:40:04.966Z,993.63
2018-08-09T03:41:05.007Z,993.63
2018-08-09T03:42:05.043Z,993.61
2018-08-09T03:43:05.085Z,993.63
2018-08-09T03:44:05.124Z,993.63
2018-08-09T03:45:05.164Z,993.63
2018-08-09T03:46:05.202Z,993.67
2018-08-09T03:47:05.244Z,993.68
2018-08-09T03:48:05.283Z,993.70
2018-08-09T03:49:05.322Z,993.67
2018-08-09T03:50:05.371Z,993.70
2018-08-09T03:51:05.404Z,993.73
2018-08-09T03:52:05.442Z,993.74
2018-08-09T03:53:05.481Z,993.71
2018-08-09T03:54:05.522Z,993.73
2018-08-09T03:55:05.569Z,993.72
2018-08-09T03:56:05.599Z,993.74
2018-08-09T03:57:05.641Z,993.75
2018-08-09T03:58:05.697Z,993.74
2018-08-09T03:59:05.719Z,993.79
2018-08-09T04:00:05.760Z,993.79
2018-08-09T04:01:05.807Z,993.76
2018-08-09T04:02:05.837Z,993.78
2018-08-09T04:03:05.877Z,993.75
2018-08-09T04:04:05.917Z,993.77
2018-08-09T04:05:05.957Z,993.74
2018-08-09T04:06:05.998Z,993.75
2018-08-09T04:07:06.037Z,993.72
2018-08-09T04:08:06.075Z,993.75
2018-08-09T04:09:06.115Z,993.77
2018-08-09T04:10:06.157Z,993.79
2018-08-09T04:11:06.195Z,993.79
2018-08-09T04:12:06.312Z,993.81
2018-08-09T04:13:06.274Z,993.78
2018-08-09T04:14:06.314Z,993.77
2018-08-09T04:15:06.354Z,993.81
2018-08-09T04:16:06.394Z,993.84
2018-08-09T04:17:06.437Z,993.82
2018-08-09T04:18:06.473Z,993.83
2018-08-09T04:19:06.516Z,993.86
2018-08-09T04:20:06.552Z,993.83
2018-08-09T04:21:06.642Z,993.84
2018-08-09T04:22:06.631Z,993.85
2018-08-09T04:23:06.673Z,993.87
2018-08-09T04:24:06.718Z,993.87
2018-08-09T04:25:06.750Z,993.85
2018-08-09T04:26:06.788Z,993.89
2018-08-09T04:27:06.830Z,993.90
2018-08-09T04:28:06.868Z,993.88
2018-08-09T04:29:06.908Z,993.88
2018-08-09T04:30:06.947Z,993.92
2018-08-09T04:31:06.987Z,993.90
2018-08-09T04:32:07.027Z,993.94
2018-08-09T04:33:07.065Z,993.91
2018-08-09T04:34:07.106Z,993.89
2018-08-09T04:35:07.149Z,993.85
2018-08-09T04:36:07.187Z,993.84
2018-08-09T04:37:07.228Z,993.86
2018-08-09T04:38:07.267Z,993.84
2018-08-09T04:39:07.306Z,993.82
2018-08-09T04:40:07.347Z,993.86
2018-08-09T04:41:07.386Z,993.85
2018-08-09T04:42:07.427Z,993.84
2018-08-09T04:43:07.466Z,993.85
2018-08-09T04:44:07.510Z,993.87
2018-08-09T04:45:07.544Z,993.85
2018-08-09T04:46:07.584Z,993.89
2018-08-09T04:47:07.675Z,993.89
2018-08-09T04:48:07.664Z,993.90
2018-08-09T04:49:07.744Z,993.89
2018-08-09T04:50:07.744Z,993.88
2018-08-09T04:51:07.785Z,993.89
2018-08-09T04:52:07.824Z,993.85
2018-08-09T04:53:07.864Z,993.88
2018-08-09T04:54:07.904Z,993.83
2018-08-09T04:55:07.946Z,993.79
2018-08-09T04:56:07.982Z,993.79
2018-08-09T04:57:08.023Z,993.78
2018-08-09T04:58:08.104Z,993.81
2018-08-09T04:59:08.101Z,993.82
2018-08-09T05:00:08.141Z,993.84
2018-08-09T05:01:08.190Z,993.87
2018-08-09T05:02:08.229Z,993.89
2018-08-09T05:03:08.263Z,993.88
2018-08-09T05:04:08.302Z,993.86
2018-08-09T05:05:08.344Z,993.88
2018-08-09T05:06:08.388Z,993.86
2018-08-09T05:07:08.424Z,993.89
2018-08-09T05:08:08.464Z,993.89
2018-08-09T05:09:08.503Z,993.89
2018-08-09T05:10:08.552Z,993.91
2018-08-09T05:11:08.593Z,993.90
2018-08-09T05:12:08.623Z,993.92
2018-08-09T05:13:08.665Z,993.92
2018-08-09T05:14:08.706Z,993.95
2018-08-09T05:15:08.746Z,993.96
2018-08-09T05:16:08.783Z,994.00
2018-08-09T05:17:08.828Z,993.96
2018-08-09T05:18:08.866Z,993.93
2018-08-09T05:19:08.905Z,993.95
2018-08-09T05:20:08.949Z,993.89
2018-08-09T05:21:08.986Z,993.91
2018-08-09T05:22:09.028Z,993.88
2018-08-09T05:23:09.106Z,993.86
2018-08-09T05:24:09.106Z,993.91
2018-08-09T05:25:09.163Z,993.83
2018-08-09T05:26:09.188Z,993.87
2018-08-09T05:27:09.233Z,993.90
2018-08-09T05:28:09.269Z,993.89
2018-08-09T05:29:09.316Z,993.86
2018-08-09T05:30:09.351Z,993.87
2018-08-09T05:31:09.406Z,993.92
2018-08-09T05:32:09.432Z,993.92
2018-08-09T05:33:09.473Z,993.95
2018-08-09T05:34:09.571Z,993.96
2018-08-09T05:35:09.561Z,993.93
2018-08-09T05:36:09.596Z,993.93
2018-08-09T05:37:09.638Z,993.91
2018-08-09T05:38:09.778Z,993.96
2018-08-09T05:39:09.718Z,993.98
2018-08-09T05:40:09.757Z,994.01
2018-08-09T05:41:09.799Z,994.03
2018-08-09T05:42:09.840Z,994.00
2018-08-09T05:43:09.881Z,994.02
2018-08-09T05:44:09.925Z,993.98
2018-08-09T05:45:09.984Z,994.01
2018-08-09T05:46:10.004Z,993.99
2018-08-09T05:47:10.046Z,993.99
2018-08-09T05:48:10.085Z,994.00
2018-08-09T05:49:10.135Z,994.01
2018-08-09T05:50:10.169Z,994.00
2018-08-09T05:51:10.211Z,994.01
2018-08-09T05:52:10.258Z,994.00
2018-08-09T05:53:10.331Z,993.99
2018-08-09T05:54:10.334Z,993.94
2018-08-09T05:55:10.376Z,993.93
2018-08-09T05:56:10.415Z,993.92
2018-08-09T05:57:10.458Z,993.92
2018-08-09T05:58:10.497Z,993.93
2018-08-09T05:59:10.540Z,993.96
2018-08-09T06:00:10.581Z,993.98
2018-08-09T06:01:10.623Z,993.93
2018-08-09T06:02:10.671Z,993.93
2018-08-09T06:03:10.706Z,993.90
2018-08-09T06:04:10.748Z,993.93
2018-08-09T06:05:10.789Z,993.89
2018-08-09T06:06:10.832Z,993.90
2018-08-09T06:07:10.873Z,993.88
2018-08-09T06:08:10.913Z,993.89
2018-08-09T06:09:10.959Z,993.86
2018-08-09T06:10:10.999Z,993.85
2018-08-09T06:11:11.041Z,993.84
2018-08-09T06:12:11.083Z,993.86
2018-08-09T06:13:11.124Z,993.85
2018-08-09T06:14:11.174Z,993.86
2018-08-09T06:15:11.214Z,993.85
2018-08-09T06:16:11.262Z,993.86
2018-08-09T06:17:11.293Z,993.86
2018-08-09T06:18:11.334Z,993.87
2018-08-09T06:19:11.380Z,993.85
2018-08-09T06:20:11.417Z,993.82
2018-08-09T06:21:11.460Z,993.85
2018-08-09T06:22:11.503Z,993.82
2018-08-09T06:23:11.546Z,993.82
2018-08-09T06:24:11.587Z,993.84
2018-08-09T06:25:11.785Z,993.83
2018-08-09T06:26:11.677Z,993.80
2018-08-09T06:27:11.714Z,993.81
2018-08-09T06:28:11.757Z,993.77
2018-08-09T06:29:11.798Z,993.76
2018-08-09T06:30:11.843Z,993.77
2018-08-09T06:31:11.891Z,993.73
2018-08-09T06:32:11.977Z,993.72
2018-08-09T06:33:11.970Z,993.74
2018-08-09T06:34:12.013Z,993.71
2018-08-09T06:35:12.058Z,993.74
2018-08-09T06:36:12.096Z,993.74
2018-08-09T06:37:12.138Z,993.75
2018-08-09T06:38:12.182Z,993.73
2018-08-09T06:39:12.227Z,993.75
2018-08-09T06:40:12.267Z,993.68
2018-08-09T06:41:12.359Z,993.68
2018-08-09T06:42:12.357Z,993.70
2018-08-09T06:43:12.397Z,993.70
2018-08-09T06:44:12.440Z,993.67
2018-08-09T06:45:12.483Z,993.69
2018-08-09T06:46:12.526Z,993.66
2018-08-09T06:47:12.572Z,993.63
2018-08-09T06:48:12.612Z,993.60
2018-08-09T06:49:12.663Z,993.58
2018-08-09T06:50:12.699Z,993.61
2018-08-09T06:51:12.747Z,993.58
2018-08-09T06:52:12.784Z,993.59
2018-08-09T06:53:12.827Z,993.65
2018-08-09T06:54:12.871Z,993.65
2018-08-09T06:55:12.914Z,993.61
2018-08-09T06:56:12.990Z,993.61
2018-08-09T06:57:13.000Z,993.67
2018-08-09T06:58:13.047Z,993.59
2018-08-09T06:59:13.089Z,993.65
2018-08-09T07:00:13.130Z,993.62
2018-08-09T07:01:13.174Z,993.61
2018-08-09T07:02:13.219Z,993.60
2018-08-09T07:03:13.262Z,993.55
2018-08-09T07:04:13.306Z,993.54
2018-08-09T07:05:13.350Z,993.49
2018-08-09T07:06:13.392Z,993.48
2018-08-09T07:07:13.438Z,993.44
2018-08-09T07:08:13.479Z,993.36
2018-08-09T07:09:13.524Z,993.30
2018-08-09T07:10:13.577Z,993.26
2018-08-09T07:11:13.613Z,993.24
2018-08-09T07:12:13.657Z,993.23
2018-08-09T07:13:13.702Z,993.18
2018-08-09T07:14:13.746Z,993.10
2018-08-09T07:15:13.794Z,993.11
2018-08-09T07:16:13.831Z,993.10
2018-08-09T07:17:13.877Z,993.10
2018-08-09T07:18:13.928Z,993.09
2018-08-09T07:19:13.963Z,993.12
2018-08-09T07:20:14.059Z,993.05
2018-08-09T07:21:14.053Z,993.06
2018-08-09T07:22:14.100Z,993.04
2018-08-09T07:23:14.140Z,993.09
2018-08-09T07:24:14.182Z,993.02
2018-08-09T07:25:14.229Z,992.98
2018-08-09T07:26:14.271Z,993.03
2018-08-09T07:27:14.315Z,992.99
2018-08-09T07:28:14.370Z,993.01
2018-08-09T07:29:14.402Z,992.97
2018-08-09T07:30:14.445Z,992.93
2018-08-09T07:31:14.490Z,992.90
2018-08-09T07:32:14.534Z,992.83
2018-08-09T07:33:14.578Z,992.82
2018-08-09T07:34:14.622Z,992.90
2018-08-09T07:35:14.667Z,992.83
2018-08-09T07:36:14.709Z,992.89
2018-08-09T07:37:14.762Z,992.94
2018-08-09T07:38:14.842Z,992.92
2018-08-09T07:39:14.849Z,992.90
2018-08-09T07:40:14.882Z,992.90
2018-08-09T07:41:14.926Z,992.85
2018-08-09T07:42:14.974Z,992.90
2018-08-09T07:43:15.013Z,992.88
2018-08-09T07:44:15.056Z,992.80
2018-08-09T07:45:15.100Z,992.81
2018-08-09T07:46:15.149Z,992.82
2018-08-09T07:47:15.186Z,992.82
2018-08-09T07:48:15.229Z,992.86
2018-08-09T07:49:15.275Z,992.90
2018-08-09T07:50:15.315Z,992.97
2018-08-09T07:51:15.378Z,992.96
2018-08-09T07:52:15.404Z,992.91
2018-08-09T07:53:15.447Z,992.87
2018-08-09T07:54:15.541Z,992.83
2018-08-09T07:55:15.535Z,992.83
2018-08-09T07:56:15.580Z,992.75
2018-08-09T07:57:15.623Z,992.74
2018-08-09T07:58:15.666Z,992.72
2018-08-09T07:59:15.711Z,992.66
2018-08-09T08:00:15.755Z,992.65
2018-08-09T08:01:15.799Z,992.64
2018-08-09T08:02:15.842Z,992.65
2018-08-09T08:03:15.894Z,992.62
2018-08-09T08:04:15.928Z,992.64
2018-08-09T08:05:15.972Z,992.63
2018-08-09T08:06:16.119Z,992.66
2018-08-09T08:07:16.061Z,992.65
2018-08-09T08:08:16.143Z,992.64
2018-08-09T08:09:16.159Z,992.67
2018-08-09T08:10:16.193Z,992.61
2018-08-09T08:11:16.238Z,992.63
2018-08-09T08:12:16.278Z,992.63
2018-08-09T08:13:16.324Z,992.68
2018-08-09T08:14:16.368Z,992.68
2018-08-09T08:15:16.413Z,992.63
2018-08-09T08:16:16.457Z,992.61
2018-08-09T08:17:16.507Z,992.61
2018-08-09T08:18:16.544Z,992.58
2018-08-09T08:19:16.587Z,992.55
2018-08-09T08:20:16.631Z,992.53
2018-08-09T08:21:16.676Z,992.48
2018-08-09T08:22:16.719Z,992.54
2018-08-09T08:23:16.776Z,992.53
2018-08-09T08:24:16.817Z,992.56
2018-08-09T08:25:16.853Z,992.50
2018-08-09T08:26:16.898Z,992.58
2018-08-09T08:27:16.943Z,992.56
2018-08-09T08:28:16.987Z,992.50
2018-08-09T08:29:17.038Z,992.49
2018-08-09T08:30:17.076Z,992.45
2018-08-09T08:31:17.118Z,992.47
2018-08-09T08:32:17.161Z,992.43
2018-08-09T08:33:17.206Z,992.42
2018-08-09T08:34:17.251Z,992.49
2018-08-09T08:35:17.309Z,992.47
2018-08-09T08:36:17.340Z,992.47
2018-08-09T08:37:17.385Z,992.50
2018-08-09T08:38:17.430Z,992.46
2018-08-09T08:39:17.473Z,992.59
2018-08-09T08:40:17.516Z,992.55
2018-08-09T08:41:17.635Z,992.56
2018-08-09T08:42:17.604Z,992.47
2018-08-09T08:43:17.650Z,992.43
2018-08-09T08:44:17.691Z,992.44
2018-08-09T08:45:17.742Z,992.34
2018-08-09T08:46:17.789Z,992.38
2018-08-09T08:47:17.840Z,992.36
2018-08-09T08:48:17.870Z,992.35
2018-08-09T08:49:17.914Z,992.35
2018-08-09T08:50:17.961Z,992.36
2018-08-09T08:51:18.005Z,992.34
2018-08-09T08:52:18.048Z,992.34
2018-08-09T08:53:18.182Z,992.34
2018-08-09T08:54:18.139Z,992.36
2018-08-09T08:55:18.242Z,992.34
2018-08-09T08:56:18.231Z,992.30
2018-08-09T08:57:18.276Z,992.34
2018-08-09T08:58:18.328Z,992.36
2018-08-09T08:59:18.364Z,992.36
2018-08-09T09:00:18.405Z,992.36
2018-08-09T09:01:18.452Z,992.25
2018-08-09T09:02:18.520Z,992.29
2018-08-09T09:03:18.549Z,992.28
2018-08-09T09:04:18.646Z,992.30
2018-08-09T09:05:18.633Z,992.28
2018-08-09T09:06:18.674Z,992.28
2018-08-09T09:07:18.718Z,992.31
2018-08-09T09:08:18.763Z,992.27
2018-08-09T09:09:18.807Z,992.25
2018-08-09T09:10:18.859Z,992.19
2018-08-09T09:11:18.901Z,992.18
2018-08-09T09:12:18.940Z,992.15
2018-08-09T09:13:18.984Z,992.16
2018-08-09T09:14:19.030Z,992.12
2018-08-09T09:15:19.077Z,992.09
2018-08-09T09:16:19.123Z,992.09
2018-08-09T09:17:19.165Z,992.07
2018-08-09T09:18:19.208Z,992.04
2018-08-09T09:19:19.306Z,992.04
2018-08-09T09:20:19.298Z,991.99
2018-08-09T09:21:19.345Z,992.00
2018-08-09T09:22:19.390Z,992.00
2018-08-09T09:23:19.434Z,991.99
2018-08-09T09:24:19.477Z,991.98
2018-08-09T09:25:19.524Z,991.96
2018-08-09T09:26:19.583Z,991.92
2018-08-09T09:27:19.613Z,991.94
2018-08-09T09:28:19.658Z,991.90
2018-08-09T09:29:19.703Z,991.81
2018-08-09T09:30:19.750Z,991.83
2018-08-09T09:31:19.793Z,991.77
2018-08-09T09:32:19.845Z,991.77
2018-08-09T09:33:19.884Z,991.78
2018-08-09T09:34:19.928Z,991.83
2018-08-09T09:35:19.972Z,991.78
2018-08-09T09:36:20.015Z,991.79
2018-08-09T09:37:20.063Z,991.77
2018-08-09T09:38:20.108Z,991.81
2018-08-09T09:39:20.160Z,991.74
2018-08-09T09:40:20.201Z,991.72
2018-08-09T09:41:20.281Z,991.74
2018-08-09T09:42:20.291Z,991.67
2018-08-09T09:43:20.335Z,991.66
2018-08-09T09:44:20.377Z,991.64
2018-08-09T09:45:20.421Z,991.59
2018-08-09T09:46:20.467Z,991.57
2018-08-09T09:47:20.513Z,991.62
2018-08-09T09:48:20.558Z,991.58
2018-08-09T09:49:20.602Z,991.55
2018-08-09T09:50:20.648Z,991.59
2018-08-09T09:51:20.693Z,991.57
2018-08-09T09:52:20.744Z,991.60
2018-08-09T09:53:20.783Z,991.62
2018-08-09T09:54:20.827Z,991.57
2018-08-09T09:55:21.026Z,991.59
2018-08-09T09:56:20.922Z,991.58
2018-08-09T09:57:20.965Z,991.58
2018-08-09T09:58:21.010Z,991.56
2018-08-09T09:59:21.056Z,991.52
2018-08-09T10:00:21.108Z,991.57
2018-08-09T10:01:21.144Z,991.55
2018-08-09T10:02:21.192Z,991.53
2018-08-09T10:03:21.244Z,991.58
2018-08-09T10:04:21.281Z,991.54
2018-08-09T10:05:21.326Z,991.56
2018-08-09T10:06:21.372Z,991.57
2018-08-09T10:07:21.449Z,991.60
2018-08-09T10:08:21.461Z,991.57
2018-08-09T10:09:21.609Z,991.56
2018-08-09T10:10:21.570Z,991.54
2018-08-09T10:11:21.600Z,991.54
2018-08-09T10:12:21.657Z,991.50
2018-08-09T10:13:21.700Z,991.51
2018-08-09T10:14:21.736Z,991.52
2018-08-09T10:15:21.790Z,991.50
2018-08-09T10:16:21.827Z,991.40
2018-08-09T10:17:21.874Z,991.35
2018-08-09T10:18:21.927Z,991.31
2018-08-09T10:19:21.965Z,991.21
2018-08-09T10:20:22.010Z,991.21
2018-08-09T10:21:22.056Z,991.19
2018-08-09T10:22:22.102Z,991.16
2018-08-09T10:23:22.155Z,991.13
2018-08-09T10:24:22.195Z,991.08
2018-08-09T10:25:22.240Z,991.05
2018-08-09T10:26:22.287Z,991.00
2018-08-09T10:27:22.341Z,990.98
2018-08-09T10:28:22.376Z,990.94
2018-08-09T10:29:22.424Z,990.95
2018-08-09T10:30:22.473Z,990.90
2018-08-09T10:31:22.515Z,990.96
2018-08-09T10:32:22.562Z,990.90
2018-08-09T10:33:22.606Z,990.91
2018-08-09T10:34:22.653Z,990.90
2018-08-09T10:35:22.741Z,990.87
2018-08-09T10:36:22.748Z,990.84
2018-08-09T10:37:22.792Z,990.82
2018-08-09T10:38:22.838Z,990.82
2018-08-09T10:39:22.892Z,990.82
2018-08-09T10:40:22.931Z,990.75
2018-08-09T10:41:22.977Z,990.73
2018-08-09T10:42:23.022Z,990.66
2018-08-09T10:43:23.069Z,990.62
2018-08-09T10:44:23.114Z,990.61
2018-08-09T10:45:23.161Z,990.59
2018-08-09T10:46:23.206Z,990.57
2018-08-09T10:47:23.255Z,990.56
2018-08-09T10:48:23.300Z,990.56
2018-08-09T10:49:23.348Z,990.53
2018-08-09T10:50:23.392Z,990.43
2018-08-09T10:51:23.452Z,990.38
2018-08-09T10:52:23.483Z,990.42
2018-08-09T10:53:23.529Z,990.45
2018-08-09T10:54:23.576Z,990.45
2018-08-09T10:55:23.621Z,990.42
2018-08-09T10:56:23.676Z,990.38
2018-08-09T10:57:23.716Z,990.38
2018-08-09T10:58:23.768Z,990.39
2018-08-09T10:59:23.806Z,990.37
2018-08-09T11:00:23.853Z,990.36
2018-08-09T11:01:23.899Z,990.41
2018-08-09T11:02:23.947Z,990.38
2018-08-09T11:03:23.992Z,990.35
2018-08-09T11:04:24.038Z,990.27
2018-08-09T11:05:24.085Z,990.25
2018-08-09T11:06:24.134Z,990.30
2018-08-09T11:07:24.230Z,990.21
2018-08-09T11:08:24.223Z,990.15
2018-08-09T11:09:24.272Z,990.23
2018-08-09T11:10:24.317Z,990.22
2018-08-09T11:11:24.365Z,990.26
2018-08-09T11:12:24.421Z,990.23
2018-08-09T11:13:24.459Z,990.16
2018-08-09T11:14:24.509Z,990.04
2018-08-09T11:15:24.553Z,989.93
2018-08-09T11:16:24.606Z,989.98
2018-08-09T11:17:24.645Z,989.99
2018-08-09T11:18:24.691Z,989.88
2018-08-09T11:19:24.754Z,989.88
2018-08-09T11:20:24.791Z,989.93
2018-08-09T11:21:24.840Z,989.92
2018-08-09T11:22:24.879Z,989.91
2018-08-09T11:23:24.926Z,989.83
2018-08-09T11:24:24.973Z,989.78
2018-08-09T11:25:25.021Z,989.78
2018-08-09T11:26:25.065Z,989.71
2018-08-09T11:27:25.114Z,989.68
2018-08-09T11:28:25.164Z,989.68
2018-08-09T11:29:25.225Z,989.73
2018-08-09T11:30:25.256Z,989.74
2018-08-09T11:31:25.301Z,989.76
2018-08-09T11:32:25.351Z,989.72
2018-08-09T11:33:25.395Z,989.78
2018-08-09T11:34:25.448Z,989.83
2018-08-09T11:35:25.493Z,989.83
2018-08-09T11:36:25.538Z,989.81
2018-08-09T11:37:25.638Z,989.85
2018-08-09T11:38:25.634Z,989.84
2018-08-09T11:39:25.680Z,989.78
2018-08-09T11:40:25.732Z,989.71
2018-08-09T11:41:25.778Z,989.66
2018-08-09T11:42:25.823Z,989.57
2018-08-09T11:43:25.872Z,989.53
2018-08-09T11:44:25.917Z,989.51
2018-08-09T11:45:25.968Z,989.50
2018-08-09T11:46:26.022Z,989.43
2018-08-09T11:47:26.068Z,989.50
2018-08-09T11:48:26.108Z,989.56
2018-08-09T11:49:26.202Z,989.67
2018-08-09T11:50:26.204Z,989.73
2018-08-09T11:51:26.251Z,989.70
2018-08-09T11:52:26.298Z,989.68
2018-08-09T11:53:26.347Z,989.58
2018-08-09T11:54:26.393Z,989.55
2018-08-09T11:55:26.455Z,989.52
2018-08-09T11:56:26.512Z,989.47
2018-08-09T11:57:26.547Z,989.45
2018-08-09T11:58:26.586Z,989.42
2018-08-09T11:59:26.634Z,989.46
2018-08-09T12:00:26.690Z,989.46
2018-08-09T12:01:26.781Z,989.44
2018-08-09T12:02:26.781Z,989.46
2018-08-09T12:03:26.828Z,989.40
2018-08-09T12:04:26.922Z,989.39
2018-08-09T12:05:26.922Z,989.34
2018-08-09T12:06:26.974Z,989.45
2018-08-09T12:07:27.022Z,989.54
2018-08-09T12:08:27.082Z,989.55
2018-08-09T12:09:27.152Z,989.53
2018-08-09T12:10:27.163Z,989.57
2018-08-09T12:11:27.215Z,989.55
2018-08-09T12:12:27.262Z,989.53
2018-08-09T12:13:27.327Z,989.60
2018-08-09T12:14:27.356Z,989.59
2018-08-09T12:15:27.413Z,989.50
2018-08-09T12:16:27.453Z,989.39
2018-08-09T12:17:27.502Z,989.32
2018-08-09T12:18:27.554Z,989.26
2018-08-09T12:19:27.604Z,989.27
2018-08-09T12:20:27.648Z,989.33
2018-08-09T12:21:27.798Z,989.35
2018-08-09T12:22:27.745Z,989.29
2018-08-09T12:23:27.794Z,989.23
2018-08-09T12:24:27.896Z,989.18
2018-08-09T12:25:27.894Z,989.20
2018-08-09T12:26:27.944Z,989.13
2018-08-09T12:27:27.992Z,989.07
2018-08-09T12:28:28.047Z,989.00
2018-08-09T12:29:28.090Z,989.00